METAR AND TAF INFORMATION
METAR FOR LSGS
ADDS - METARS form results

(1137 UTC 06 December 2019)
Data provider http://aviationweather.gov/metar/data/
 
METAR text: LSGS 061120Z 13002KT CAVOK 05/M02 Q1023
Conditions at: LSGS (SION (MIL/CIV/AU, CH) observed 1120 UTC 06 December 2019
Temperature: 5.0°C (41°F)
Dewpoint: -2.0°C (28°F) [RH = 60%]
Pressure (altimeter): 30.21 inches Hg (1023.0 mb)
Winds: from the SE (130 degrees) at 2 MPH (2 knots; 1.0 m/s)
Visibility: 6 or more miles (10+ km)
Ceiling: ceiling and visibility are OK
Clouds: unknown
Weather: no significant weather observed at this time

METAR text: LSGS 061050Z 10004KT CAVOK 03/M02 Q1024
Conditions at: LSGS (SION (MIL/CIV/AU, CH) observed 1050 UTC 06 December 2019
Temperature: 3.0°C (37°F)
Dewpoint: -2.0°C (28°F) [RH = 70%]
Pressure (altimeter): 30.24 inches Hg (1024.0 mb)
Winds: from the E (100 degrees) at 5 MPH (4 knots; 2.1 m/s)
Visibility: 6 or more miles (10+ km)
Ceiling: ceiling and visibility are OK
Clouds: unknown
Weather: no significant weather observed at this time

Forecast for: LSGS (SION (MIL/CIV/AU, CH)
Text: TAF LSGS 061125Z 0612/0621 VRB03KT CAVOK
Forecast period: 1200 to 2100 UTC 06 December 2019
Forecast type: FROM: standard forecast or significant change
Winds: variable direction winds at 3 MPH (3 knots; 1.5 m/s)
Visibility: 6 or more miles 10+ km)
Ceiling: unknown
Clouds: missing
Weather: NSW  (no significant weather)

 AIRPORT MAP

 RUNWAY INFORMATION
Runway 07 Runway length 0 ft Runway width 0 ft
Runway elevation 1578 ft Runway displaced threshold 0 ft Runway heading 0
Runway 25 Runway length 0 ft Runway width 0 ft
Runway elevation 1581 ft Runway displaced threshold 0 ft Runway heading 0
Runway 07L Runway length 1820 ft Runway width 98 ft
Runway elevation 1578 ft Runway displaced threshold 0 ft Runway heading 73
Runway 25R Runway length 1820 ft Runway width 98 ft
Runway elevation 1581 ft Runway displaced threshold 328 ft Runway heading 253
Runway 07R Runway length 6562 ft Runway width 131 ft
Runway elevation 1580 ft Runway displaced threshold 164 ft Runway heading 73
Runway 25L Runway length 6562 ft Runway width 131 ft
Runway elevation 1585 ft Runway displaced threshold 164 ft Runway heading 253

 AIRPORT FREQUENCIES
Type A/G Name SWISS MILI Frequency 134.275 MHZ
Type APP Name RADAR Frequency 126.825 MHZ
Type GND Name GND Frequency 121.7 MHZ
Type INFO Name INFO Frequency 122.35 MHZ
Type TWR Name TWR Frequency 118.275 MHZ

 AIRPORT NEAR NAVIGATION AIDS
Type VOR-DME Name Montana Frequency 115850 KHZ
Type VOR-DME Name Sion Frequency 112150 KHZ



Powered by Virtual Airlines Manager [v2.6.2]